sensor_id;sensor_type;location;lat;lon;timestamp;pressure;altitude;pressure_sealevel;temperature;humidity
15263;BME280;7733;51.554;13.590;2023-07-29T00:02:01;99763.47;;;22.89;75.88
15263;BME280;7733;51.554;13.590;2023-07-29T00:04:26;99763.84;;;22.96;75.37
15263;BME280;7733;51.554;13.590;2023-07-29T00:06:52;99761.53;;;22.91;75.73
15263;BME280;7733;51.554;13.590;2023-07-29T00:09:18;99753.88;;;22.98;74.83
15263;BME280;7733;51.554;13.590;2023-07-29T00:11:44;99750.22;;;22.88;76.29
15263;BME280;7733;51.554;13.590;2023-07-29T00:14:09;99748.28;;;23.01;75.51
15263;BME280;7733;51.554;13.590;2023-07-29T00:16:35;99754.34;;;22.92;75.18
15263;BME280;7733;51.554;13.590;2023-07-29T00:19:02;99759.44;;;22.84;75.74
15263;BME280;7733;51.554;13.590;2023-07-29T00:21:28;99758.72;;;22.93;75.58
15263;BME280;7733;51.554;13.590;2023-07-29T00:23:54;99747.88;;;22.83;76.03
15263;BME280;7733;51.554;13.590;2023-07-29T00:26:23;99754.63;;;23.00;74.92
15263;BME280;7733;51.554;13.590;2023-07-29T00:28:51;99750.63;;;22.58;77.01
15263;BME280;7733;51.554;13.590;2023-07-29T00:31:17;99749.00;;;22.44;77.80
15263;BME280;7733;51.554;13.590;2023-07-29T00:33:43;99753.75;;;22.75;76.31
15263;BME280;7733;51.554;13.590;2023-07-29T00:36:08;99754.94;;;22.84;75.54
15263;BME280;7733;51.554;13.590;2023-07-29T00:38:34;99751.31;;;22.72;75.85
15263;BME280;7733;51.554;13.590;2023-07-29T00:41:02;99747.06;;;22.70;75.53
15263;BME280;7733;51.554;13.590;2023-07-29T00:43:29;99742.06;;;22.65;75.34
15263;BME280;7733;51.554;13.590;2023-07-29T00:45:55;99740.22;;;22.66;74.72
15263;BME280;7733;51.554;13.590;2023-07-29T00:48:23;99735.16;;;22.74;75.95
15263;BME280;7733;51.554;13.590;2023-07-29T00:50:50;99727.25;;;22.72;75.98
15263;BME280;7733;51.554;13.590;2023-07-29T00:53:16;99720.28;;;22.83;75.42
15263;BME280;7733;51.554;13.590;2023-07-29T00:55:43;99720.47;;;22.80;75.53
15263;BME280;7733;51.554;13.590;2023-07-29T00:58:10;99726.28;;;22.73;75.93
15263;BME280;7733;51.554;13.590;2023-07-29T01:00:36;99720.19;;;22.24;79.17
15263;BME280;7733;51.554;13.590;2023-07-29T01:03:02;99724.13;;;22.31;78.06
15263;BME280;7733;51.554;13.590;2023-07-29T01:05:39;99730.28;;;22.44;78.11
15263;BME280;7733;51.554;13.590;2023-07-29T01:08:21;99721.94;;;22.36;78.38
15263;BME280;7733;51.554;13.590;2023-07-29T01:13:58;99718.44;;;22.59;76.26
15263;BME280;7733;51.554;13.590;2023-07-29T01:16:42;99720.25;;;22.59;76.18
15263;BME280;7733;51.554;13.590;2023-07-29T01:22:06;99722.41;;;22.54;76.59
15263;BME280;7733;51.554;13.590;2023-07-29T01:24:33;99714.41;;;22.54;76.58
15263;BME280;7733;51.554;13.590;2023-07-29T01:26:58;99713.81;;;22.37;77.32
15263;BME280;7733;51.554;13.590;2023-07-29T01:29:27;99699.78;;;22.46;76.81
15263;BME280;7733;51.554;13.590;2023-07-29T01:31:59;99705.06;;;22.35;77.41
15263;BME280;7733;51.554;13.590;2023-07-29T01:34:35;99707.56;;;22.26;77.68
15263;BME280;7733;51.554;13.590;2023-07-29T01:37:09;99704.22;;;22.35;76.55
15263;BME280;7733;51.554;13.590;2023-07-29T01:39:39;99703.63;;;22.19;77.63
15263;BME280;7733;51.554;13.590;2023-07-29T01:42:06;99700.09;;;22.42;75.48
15263;BME280;7733;51.554;13.590;2023-07-29T01:44:33;99706.16;;;22.33;76.10
15263;BME280;7733;51.554;13.590;2023-07-29T01:47:00;99705.19;;;22.34;76.19
15263;BME280;7733;51.554;13.590;2023-07-29T01:49:25;99703.75;;;22.41;75.91
15263;BME280;7733;51.554;13.590;2023-07-29T01:51:51;99707.22;;;22.30;76.90
15263;BME280;7733;51.554;13.590;2023-07-29T01:54:17;99710.53;;;22.34;76.86
15263;BME280;7733;51.554;13.590;2023-07-29T01:56:42;99710.03;;;22.16;77.12
15263;BME280;7733;51.554;13.590;2023-07-29T01:59:08;99712.25;;;22.22;76.91
15263;BME280;7733;51.554;13.590;2023-07-29T02:01:34;99717.47;;;22.36;76.38
15263;BME280;7733;51.554;13.590;2023-07-29T02:03:59;99713.38;;;22.43;75.89
15263;BME280;7733;51.554;13.590;2023-07-29T02:06:25;99718.66;;;21.83;77.82
15263;BME280;7733;51.554;13.590;2023-07-29T02:08:53;99724.34;;;22.02;77.00
15263;BME280;7733;51.554;13.590;2023-07-29T02:11:19;99714.78;;;22.12;75.24
15263;BME280;7733;51.554;13.590;2023-07-29T02:13:53;99717.03;;;21.80;76.95
15263;BME280;7733;51.554;13.590;2023-07-29T02:16:20;99722.03;;;22.10;76.52
15263;BME280;7733;51.554;13.590;2023-07-29T02:18:49;99713.72;;;21.90;79.10
15263;BME280;7733;51.554;13.590;2023-07-29T02:21:16;99716.34;;;22.02;78.43
15263;BME280;7733;51.554;13.590;2023-07-29T02:23:41;99716.97;;;22.19;77.47
15263;BME280;7733;51.554;13.590;2023-07-29T02:26:07;99721.25;;;22.21;77.10
15263;BME280;7733;51.554;13.590;2023-07-29T02:28:33;99727.38;;;22.10;77.22
15263;BME280;7733;51.554;13.590;2023-07-29T02:31:23;99725.56;;;22.11;77.96
15263;BME280;7733;51.554;13.590;2023-07-29T02:33:49;99726.41;;;22.11;77.40
15263;BME280;7733;51.554;13.590;2023-07-29T02:36:16;99723.28;;;22.17;77.59
15263;BME280;7733;51.554;13.590;2023-07-29T02:38:42;99731.41;;;22.29;76.70
15263;BME280;7733;51.554;13.590;2023-07-29T02:41:10;99730.88;;;22.24;77.71
15263;BME280;7733;51.554;13.590;2023-07-29T02:43:38;99744.38;;;22.09;78.67
15263;BME280;7733;51.554;13.590;2023-07-29T02:46:04;99742.56;;;22.10;78.41
15263;BME280;7733;51.554;13.590;2023-07-29T02:48:30;99732.16;;;22.18;78.09
15263;BME280;7733;51.554;13.590;2023-07-29T02:50:56;99741.34;;;22.01;79.38
15263;BME280;7733;51.554;13.590;2023-07-29T02:53:22;99745.03;;;21.49;82.80
15263;BME280;7733;51.554;13.590;2023-07-29T02:55:49;99728.81;;;21.52;82.39
15263;BME280;7733;51.554;13.590;2023-07-29T02:58:14;99740.44;;;21.51;83.88
15263;BME280;7733;51.554;13.590;2023-07-29T03:00:40;99745.38;;;21.45;84.25
15263;BME280;7733;51.554;13.590;2023-07-29T03:03:08;99743.63;;;21.82;83.06
15263;BME280;7733;51.554;13.590;2023-07-29T03:05:34;99744.91;;;21.38;86.60
15263;BME280;7733;51.554;13.590;2023-07-29T03:08:00;99748.25;;;21.54;86.72
15263;BME280;7733;51.554;13.590;2023-07-29T03:10:26;99744.38;;;21.33;88.05
15263;BME280;7733;51.554;13.590;2023-07-29T03:12:54;99736.38;;;21.33;89.77
15263;BME280;7733;51.554;13.590;2023-07-29T03:15:23;99738.09;;;21.47;88.55
15263;BME280;7733;51.554;13.590;2023-07-29T03:17:52;99733.06;;;21.30;89.53
15263;BME280;7733;51.554;13.590;2023-07-29T03:20:20;99732.63;;;21.23;90.94
15263;BME280;7733;51.554;13.590;2023-07-29T03:22:46;99731.69;;;21.24;91.54
15263;BME280;7733;51.554;13.590;2023-07-29T03:25:12;99723.78;;;21.86;86.47
15263;BME280;7733;51.554;13.590;2023-07-29T03:27:38;99724.47;;;22.01;86.02
15263;BME280;7733;51.554;13.590;2023-07-29T03:30:06;99732.53;;;21.88;86.51
15263;BME280;7733;51.554;13.590;2023-07-29T03:32:32;99731.78;;;21.73;87.58
15263;BME280;7733;51.554;13.590;2023-07-29T03:34:58;99733.41;;;21.50;89.77
15263;BME280;7733;51.554;13.590;2023-07-29T03:37:24;99731.47;;;21.52;90.12
15263;BME280;7733;51.554;13.590;2023-07-29T03:39:50;99731.03;;;21.59;90.36
15263;BME280;7733;51.554;13.590;2023-07-29T03:42:18;99721.34;;;21.58;89.93
15263;BME280;7733;51.554;13.590;2023-07-29T03:44:43;99729.78;;;21.51;90.67
15263;BME280;7733;51.554;13.590;2023-07-29T03:47:09;99722.50;;;21.28;92.53
15263;BME280;7733;51.554;13.590;2023-07-29T03:49:35;99726.88;;;21.42;92.74
15263;BME280;7733;51.554;13.590;2023-07-29T03:52:00;99726.88;;;21.42;92.76
15263;BME280;7733;51.554;13.590;2023-07-29T03:54:26;99722.06;;;21.60;92.64
15263;BME280;7733;51.554;13.590;2023-07-29T03:56:52;99723.69;;;21.49;92.43
15263;BME280;7733;51.554;13.590;2023-07-29T03:59:17;99727.00;;;21.66;91.01
15263;BME280;7733;51.554;13.590;2023-07-29T04:01:43;99722.47;;;21.79;90.35
15263;BME280;7733;51.554;13.590;2023-07-29T04:04:09;99724.00;;;21.70;91.02
15263;BME280;7733;51.554;13.590;2023-07-29T04:06:35;99729.34;;;21.58;92.48
15263;BME280;7733;51.554;13.590;2023-07-29T04:09:01;99729.75;;;21.77;90.76
15263;BME280;7733;51.554;13.590;2023-07-29T04:11:26;99739.25;;;21.81;91.33
15263;BME280;7733;51.554;13.590;2023-07-29T04:13:52;99731.25;;;21.81;90.43
15263;BME280;7733;51.554;13.590;2023-07-29T04:16:18;99739.13;;;21.95;90.26
15263;BME280;7733;51.554;13.590;2023-07-29T04:18:44;99728.94;;;22.26;87.66
15263;BME280;7733;51.554;13.590;2023-07-29T04:21:09;99742.13;;;21.78;91.51
15263;BME280;7733;51.554;13.590;2023-07-29T04:23:35;99740.75;;;21.60;92.62
15263;BME280;7733;51.554;13.590;2023-07-29T04:26:01;99728.91;;;21.89;91.36
15263;BME280;7733;51.554;13.590;2023-07-29T04:28:26;99728.25;;;21.85;90.89
15263;BME280;7733;51.554;13.590;2023-07-29T04:30:52;99732.38;;;22.02;90.37
15263;BME280;7733;51.554;13.590;2023-07-29T04:33:18;99724.19;;;21.93;91.08
15263;BME280;7733;51.554;13.590;2023-07-29T04:35:44;99723.91;;;22.21;89.07
15263;BME280;7733;51.554;13.590;2023-07-29T04:38:09;99731.22;;;21.94;90.74
15263;BME280;7733;51.554;13.590;2023-07-29T04:40:35;99726.28;;;22.26;89.06
15263;BME280;7733;51.554;13.590;2023-07-29T04:43:01;99726.66;;;22.08;90.23
15263;BME280;7733;51.554;13.590;2023-07-29T04:45:30;99722.78;;;22.12;90.14
15263;BME280;7733;51.554;13.590;2023-07-29T04:47:58;99735.72;;;22.06;90.68
15263;BME280;7733;51.554;13.590;2023-07-29T04:50:24;99724.34;;;22.28;89.69
15263;BME280;7733;51.554;13.590;2023-07-29T04:52:49;99731.06;;;22.21;89.48
15263;BME280;7733;51.554;13.590;2023-07-29T04:55:15;99729.19;;;22.23;89.64
15263;BME280;7733;51.554;13.590;2023-07-29T04:57:41;99725.38;;;22.38;88.64
15263;BME280;7733;51.554;13.590;2023-07-29T05:00:07;99733.69;;;22.09;90.17
15263;BME280;7733;51.554;13.590;2023-07-29T05:02:33;99737.19;;;22.23;89.86
15263;BME280;7733;51.554;13.590;2023-07-29T05:04:59;99726.06;;;22.29;88.80
15263;BME280;7733;51.554;13.590;2023-07-29T05:07:24;99729.06;;;21.99;90.59
15263;BME280;7733;51.554;13.590;2023-07-29T05:09:50;99717.25;;;22.63;86.87
15263;BME280;7733;51.554;13.590;2023-07-29T05:12:16;99727.75;;;22.77;85.81
15263;BME280;7733;51.554;13.590;2023-07-29T05:14:41;99715.94;;;22.45;88.39
15263;BME280;7733;51.554;13.590;2023-07-29T05:17:07;99720.06;;;22.86;86.42
15263;BME280;7733;51.554;13.590;2023-07-29T05:19:33;99725.56;;;22.48;88.67
15263;BME280;7733;51.554;13.590;2023-07-29T05:21:59;99720.13;;;22.60;88.67
15263;BME280;7733;51.554;13.590;2023-07-29T05:24:24;99713.31;;;22.56;88.90
15263;BME280;7733;51.554;13.590;2023-07-29T05:26:50;99719.91;;;22.39;89.55
15263;BME280;7733;51.554;13.590;2023-07-29T05:29:16;99718.19;;;22.62;88.63
15263;BME280;7733;51.554;13.590;2023-07-29T05:31:41;99713.00;;;22.85;87.31
15263;BME280;7733;51.554;13.590;2023-07-29T05:34:07;99717.75;;;22.68;87.75
15263;BME280;7733;51.554;13.590;2023-07-29T05:36:34;99710.31;;;22.85;87.47
15263;BME280;7733;51.554;13.590;2023-07-29T05:38:59;99709.75;;;22.92;87.49
15263;BME280;7733;51.554;13.590;2023-07-29T05:41:25;99702.63;;;23.15;85.58
15263;BME280;7733;51.554;13.590;2023-07-29T05:43:53;99706.63;;;23.10;85.68
15263;BME280;7733;51.554;13.590;2023-07-29T05:46:19;99704.19;;;23.06;86.43
15263;BME280;7733;51.554;13.590;2023-07-29T05:48:44;99696.09;;;23.30;85.90
15263;BME280;7733;51.554;13.590;2023-07-29T05:51:10;99699.69;;;23.07;85.79
15263;BME280;7733;51.554;13.590;2023-07-29T05:53:36;99692.88;;;23.14;84.57
15263;BME280;7733;51.554;13.590;2023-07-29T05:56:01;99690.72;;;23.42;84.58
15263;BME280;7733;51.554;13.590;2023-07-29T05:58:27;99685.16;;;23.45;84.09
15263;BME280;7733;51.554;13.590;2023-07-29T06:00:53;99678.47;;;23.50;84.28
15263;BME280;7733;51.554;13.590;2023-07-29T06:03:19;99676.69;;;23.84;82.34
15263;BME280;7733;51.554;13.590;2023-07-29T06:05:44;99672.50;;;23.47;82.74
15263;BME280;7733;51.554;13.590;2023-07-29T06:08:10;99673.38;;;23.70;82.17
15263;BME280;7733;51.554;13.590;2023-07-29T06:10:37;99678.00;;;23.56;83.01
15263;BME280;7733;51.554;13.590;2023-07-29T06:13:02;99676.41;;;23.43;82.86
15263;BME280;7733;51.554;13.590;2023-07-29T06:15:28;99678.59;;;23.60;82.01
15263;BME280;7733;51.554;13.590;2023-07-29T06:17:54;99684.31;;;23.55;81.72
15263;BME280;7733;51.554;13.590;2023-07-29T06:20:19;99679.47;;;23.83;80.75
15263;BME280;7733;51.554;13.590;2023-07-29T06:22:45;99688.00;;;23.65;81.85
15263;BME280;7733;51.554;13.590;2023-07-29T06:25:11;99683.94;;;23.82;81.13
15263;BME280;7733;51.554;13.590;2023-07-29T06:27:37;99694.53;;;23.95;79.77
15263;BME280;7733;51.554;13.590;2023-07-29T06:30:02;99695.38;;;24.29;79.38
15263;BME280;7733;51.554;13.590;2023-07-29T06:32:28;99707.59;;;23.77;80.62
15263;BME280;7733;51.554;13.590;2023-07-29T06:34:54;99699.63;;;24.20;79.03
15263;BME280;7733;51.554;13.590;2023-07-29T06:37:20;99697.56;;;24.35;78.93
15263;BME280;7733;51.554;13.590;2023-07-29T06:39:46;99690.34;;;24.47;76.80
15263;BME280;7733;51.554;13.590;2023-07-29T06:42:12;99699.25;;;24.36;77.22
15263;BME280;7733;51.554;13.590;2023-07-29T06:44:38;99700.97;;;24.15;77.31
15263;BME280;7733;51.554;13.590;2023-07-29T06:47:04;99701.47;;;24.09;76.37
15263;BME280;7733;51.554;13.590;2023-07-29T06:49:29;99697.56;;;24.24;76.49
15263;BME280;7733;51.554;13.590;2023-07-29T06:51:55;99694.56;;;23.73;75.88
15263;BME280;7733;51.554;13.590;2023-07-29T06:54:25;99699.09;;;23.83;76.78
15263;BME280;7733;51.554;13.590;2023-07-29T06:56:54;99707.09;;;24.06;76.26
15263;BME280;7733;51.554;13.590;2023-07-29T06:59:20;99691.88;;;24.06;75.59
15263;BME280;7733;51.554;13.590;2023-07-29T07:01:46;99704.38;;;24.17;74.90
15263;BME280;7733;51.554;13.590;2023-07-29T07:04:11;99703.16;;;24.21;75.86
15263;BME280;7733;51.554;13.590;2023-07-29T07:06:37;99700.00;;;24.27;75.37
15263;BME280;7733;51.554;13.590;2023-07-29T07:09:03;99690.75;;;24.31;75.54
15263;BME280;7733;51.554;13.590;2023-07-29T07:11:28;99708.19;;;24.69;75.73
15263;BME280;7733;51.554;13.590;2023-07-29T07:13:54;99700.81;;;24.50;75.79
15263;BME280;7733;51.554;13.590;2023-07-29T07:16:20;99702.09;;;24.67;74.81
15263;BME280;7733;51.554;13.590;2023-07-29T07:18:46;99699.13;;;25.02;73.45
15263;BME280;7733;51.554;13.590;2023-07-29T07:21:11;99698.06;;;24.93;73.64
15263;BME280;7733;51.554;13.590;2023-07-29T07:23:39;99696.91;;;24.75;73.95
15263;BME280;7733;51.554;13.590;2023-07-29T07:26:05;99689.19;;;25.13;72.59
15263;BME280;7733;51.554;13.590;2023-07-29T07:28:30;99691.34;;;25.20;71.63
15263;BME280;7733;51.554;13.590;2023-07-29T07:30:56;99700.19;;;25.10;71.63
15263;BME280;7733;51.554;13.590;2023-07-29T07:33:23;99691.94;;;25.02;71.58
15263;BME280;7733;51.554;13.590;2023-07-29T07:35:49;99683.59;;;25.47;70.89
15263;BME280;7733;51.554;13.590;2023-07-29T07:38:14;99675.81;;;25.44;71.30
15263;BME280;7733;51.554;13.590;2023-07-29T07:40:40;99666.97;;;25.32;69.74
15263;BME280;7733;51.554;13.590;2023-07-29T07:43:06;99661.91;;;25.39;68.98
15263;BME280;7733;51.554;13.590;2023-07-29T07:45:32;99663.31;;;25.64;68.41
15263;BME280;7733;51.554;13.590;2023-07-29T07:47:58;99661.25;;;25.67;68.33
15263;BME280;7733;51.554;13.590;2023-07-29T07:50:24;99655.81;;;25.98;67.84
15263;BME280;7733;51.554;13.590;2023-07-29T07:52:50;99652.00;;;26.00;67.91
15263;BME280;7733;51.554;13.590;2023-07-29T07:55:16;99646.84;;;26.37;66.44
15263;BME280;7733;51.554;13.590;2023-07-29T07:57:42;99642.28;;;26.28;66.99
15263;BME280;7733;51.554;13.590;2023-07-29T08:00:08;99641.03;;;26.32;66.88
15263;BME280;7733;51.554;13.590;2023-07-29T08:02:35;99628.59;;;26.51;66.10
15263;BME280;7733;51.554;13.590;2023-07-29T08:05:00;99625.88;;;26.31;65.74
15263;BME280;7733;51.554;13.590;2023-07-29T08:07:26;99622.34;;;26.60;65.05
15263;BME280;7733;51.554;13.590;2023-07-29T08:09:52;99621.81;;;26.66;64.16
15263;BME280;7733;51.554;13.590;2023-07-29T08:12:17;99627.88;;;26.87;63.97
15263;BME280;7733;51.554;13.590;2023-07-29T08:14:43;99623.78;;;26.83;61.89
15263;BME280;7733;51.554;13.590;2023-07-29T08:17:09;99622.34;;;26.89;62.09
15263;BME280;7733;51.554;13.590;2023-07-29T08:19:36;99611.13;;;27.13;61.79
15263;BME280;7733;51.554;13.590;2023-07-29T08:22:03;99619.75;;;26.97;61.53
15263;BME280;7733;51.554;13.590;2023-07-29T08:24:29;99614.22;;;26.98;62.38
15263;BME280;7733;51.554;13.590;2023-07-29T08:26:55;99609.84;;;26.97;62.66
15263;BME280;7733;51.554;13.590;2023-07-29T08:29:20;99601.91;;;27.15;61.30
15263;BME280;7733;51.554;13.590;2023-07-29T08:31:46;99609.59;;;26.81;62.30
15263;BME280;7733;51.554;13.590;2023-07-29T08:34:12;99605.91;;;26.92;61.54
15263;BME280;7733;51.554;13.590;2023-07-29T08:36:37;99611.44;;;26.81;61.84
15263;BME280;7733;51.554;13.590;2023-07-29T08:39:03;99615.25;;;26.78;62.13
15263;BME280;7733;51.554;13.590;2023-07-29T08:42:01;99626.31;;;26.75;62.46
15263;BME280;7733;51.554;13.590;2023-07-29T08:44:35;99624.38;;;26.48;63.08
15263;BME280;7733;51.554;13.590;2023-07-29T08:47:02;99631.16;;;26.52;63.22
15263;BME280;7733;51.554;13.590;2023-07-29T08:49:30;99628.75;;;26.68;62.81
15263;BME280;7733;51.554;13.590;2023-07-29T08:51:57;99621.19;;;26.82;62.96
15263;BME280;7733;51.554;13.590;2023-07-29T08:54:23;99634.25;;;26.86;62.10
15263;BME280;7733;51.554;13.590;2023-07-29T08:56:50;99620.94;;;26.85;61.74
15263;BME280;7733;51.554;13.590;2023-07-29T08:59:16;99616.34;;;27.24;60.45
15263;BME280;7733;51.554;13.590;2023-07-29T09:01:43;99618.66;;;26.90;62.16
15263;BME280;7733;51.554;13.590;2023-07-29T09:04:09;99623.69;;;27.22;60.33
15263;BME280;7733;51.554;13.590;2023-07-29T09:06:36;99608.50;;;27.31;59.69
15263;BME280;7733;51.554;13.590;2023-07-29T09:09:04;99616.59;;;27.21;58.89
15263;BME280;7733;51.554;13.590;2023-07-29T09:11:30;99612.38;;;27.18;59.41
15263;BME280;7733;51.554;13.590;2023-07-29T09:13:57;99624.03;;;27.00;60.06
15263;BME280;7733;51.554;13.590;2023-07-29T09:16:23;99614.97;;;27.47;58.22
15263;BME280;7733;51.554;13.590;2023-07-29T09:18:50;99611.13;;;27.50;58.35
15263;BME280;7733;51.554;13.590;2023-07-29T09:21:24;99611.66;;;27.16;59.40
15263;BME280;7733;51.554;13.590;2023-07-29T09:23:55;99609.81;;;27.17;59.95
15263;BME280;7733;51.554;13.590;2023-07-29T09:26:26;99611.56;;;26.89;60.45
15263;BME280;7733;51.554;13.590;2023-07-29T09:28:57;99615.97;;;26.61;61.53
15263;BME280;7733;51.554;13.590;2023-07-29T09:31:28;99611.03;;;26.76;61.12
15263;BME280;7733;51.554;13.590;2023-07-29T09:33:58;99607.88;;;27.09;60.08
15263;BME280;7733;51.554;13.590;2023-07-29T09:36:25;99608.13;;;27.16;60.35
15263;BME280;7733;51.554;13.590;2023-07-29T09:38:55;99606.03;;;27.10;60.08
15263;BME280;7733;51.554;13.590;2023-07-29T09:41:26;99607.31;;;26.96;60.54
15263;BME280;7733;51.554;13.590;2023-07-29T09:44:03;99597.34;;;27.16;60.02
15263;BME280;7733;51.554;13.590;2023-07-29T09:46:37;99607.22;;;27.35;59.74
15263;BME280;7733;51.554;13.590;2023-07-29T09:49:04;99603.09;;;27.95;58.55
15263;BME280;7733;51.554;13.590;2023-07-29T09:51:31;99590.63;;;27.94;58.38
15263;BME280;7733;51.554;13.590;2023-07-29T09:53:57;99593.31;;;27.94;57.67
15263;BME280;7733;51.554;13.590;2023-07-29T09:56:26;99587.78;;;27.96;57.44
15263;BME280;7733;51.554;13.590;2023-07-29T09:58:52;99585.97;;;27.59;58.06
15263;BME280;7733;51.554;13.590;2023-07-29T10:01:18;99588.13;;;27.65;57.91
15263;BME280;7733;51.554;13.590;2023-07-29T10:03:45;99583.75;;;27.82;57.03
15263;BME280;7733;51.554;13.590;2023-07-29T10:06:12;99589.94;;;27.92;56.78
15263;BME280;7733;51.554;13.590;2023-07-29T10:08:40;99581.59;;;28.31;56.56
15263;BME280;7733;51.554;13.590;2023-07-29T10:11:08;99591.09;;;28.07;57.52
15263;BME280;7733;51.554;13.590;2023-07-29T10:13:35;99584.75;;;28.44;54.43
15263;BME280;7733;51.554;13.590;2023-07-29T10:16:02;99588.03;;;27.75;56.06
15263;BME280;7733;51.554;13.590;2023-07-29T10:18:29;99584.84;;;27.89;56.43
15263;BME280;7733;51.554;13.590;2023-07-29T10:20:58;99587.53;;;27.89;56.70
15263;BME280;7733;51.554;13.590;2023-07-29T10:23:32;99578.84;;;28.13;55.60
15263;BME280;7733;51.554;13.590;2023-07-29T10:26:05;99583.13;;;28.33;55.60
15263;BME280;7733;51.554;13.590;2023-07-29T10:28:36;99577.31;;;28.10;55.12
15263;BME280;7733;51.554;13.590;2023-07-29T10:31:04;99569.38;;;28.09;54.91
15263;BME280;7733;51.554;13.590;2023-07-29T10:33:33;99570.09;;;28.29;54.01
15263;BME280;7733;51.554;13.590;2023-07-29T10:36:00;99577.63;;;28.07;53.76
15263;BME280;7733;51.554;13.590;2023-07-29T10:38:27;99560.56;;;27.62;53.40
15263;BME280;7733;51.554;13.590;2023-07-29T10:40:57;99568.25;;;27.56;53.95
15263;BME280;7733;51.554;13.590;2023-07-29T10:43:31;99565.56;;;27.56;54.49
15263;BME280;7733;51.554;13.590;2023-07-29T10:46:22;99566.03;;;27.97;53.43
15263;BME280;7733;51.554;13.590;2023-07-29T10:48:53;99566.31;;;28.04;52.94
15263;BME280;7733;51.554;13.590;2023-07-29T10:51:42;99565.63;;;27.74;54.09
15263;BME280;7733;51.554;13.590;2023-07-29T10:54:13;99571.09;;;27.65;54.54
15263;BME280;7733;51.554;13.590;2023-07-29T10:56:49;99560.03;;;27.58;54.22
15263;BME280;7733;51.554;13.590;2023-07-29T11:01:50;99552.94;;;28.02;53.58
15263;BME280;7733;51.554;13.590;2023-07-29T11:09:54;99558.03;;;27.87;54.24
15263;BME280;7733;51.554;13.590;2023-07-29T11:12:40;99532.47;;;28.09;54.21
15263;BME280;7733;51.554;13.590;2023-07-29T11:18:12;99525.38;;;27.91;54.58
15263;BME280;7733;51.554;13.590;2023-07-29T11:20:33;99529.63;;;28.11;54.63
15263;BME280;7733;51.554;13.590;2023-07-29T11:23:02;99519.22;;;27.98;54.21
15263;BME280;7733;51.554;13.590;2023-07-29T11:25:30;99520.31;;;28.05;54.98
15263;BME280;7733;51.554;13.590;2023-07-29T11:27:59;99511.44;;;28.13;55.30
15263;BME280;7733;51.554;13.590;2023-07-29T11:30:25;99505.59;;;29.13;53.24
15263;BME280;7733;51.554;13.590;2023-07-29T11:32:58;99505.00;;;28.75;53.47
15263;BME280;7733;51.554;13.590;2023-07-29T11:35:25;99508.56;;;28.14;54.39
15263;BME280;7733;51.554;13.590;2023-07-29T11:37:53;99505.19;;;28.48;53.73
15263;BME280;7733;51.554;13.590;2023-07-29T11:40:24;99511.63;;;28.55;54.46
15263;BME280;7733;51.554;13.590;2023-07-29T11:42:52;99505.16;;;28.74;54.18
15263;BME280;7733;51.554;13.590;2023-07-29T11:45:19;99508.53;;;28.94;53.42
15263;BME280;7733;51.554;13.590;2023-07-29T11:47:46;99507.19;;;28.98;52.39
15263;BME280;7733;51.554;13.590;2023-07-29T11:50:14;99493.44;;;29.17;52.10
15263;BME280;7733;51.554;13.590;2023-07-29T11:52:42;99503.47;;;28.47;54.10
15263;BME280;7733;51.554;13.590;2023-07-29T11:55:09;99513.59;;;28.09;54.88
15263;BME280;7733;51.554;13.590;2023-07-29T11:57:37;99494.31;;;28.40;55.02
15263;BME280;7733;51.554;13.590;2023-07-29T12:00:05;99496.25;;;28.30;55.32
15263;BME280;7733;51.554;13.590;2023-07-29T12:02:34;99493.06;;;28.52;54.78
15263;BME280;7733;51.554;13.590;2023-07-29T12:05:03;99475.28;;;28.67;54.25
15263;BME280;7733;51.554;13.590;2023-07-29T12:07:29;99472.00;;;28.56;54.52
15263;BME280;7733;51.554;13.590;2023-07-29T12:09:55;99484.75;;;28.45;55.37
15263;BME280;7733;51.554;13.590;2023-07-29T12:12:22;99475.00;;;28.27;55.04
15263;BME280;7733;51.554;13.590;2023-07-29T12:14:48;99476.59;;;28.02;58.46
15263;BME280;7733;51.554;13.590;2023-07-29T12:17:15;99481.81;;;28.39;61.99
15263;BME280;7733;51.554;13.590;2023-07-29T12:19:42;99492.72;;;27.76;65.64
15263;BME280;7733;51.554;13.590;2023-07-29T12:22:10;99566.91;;;24.58;81.80
15263;BME280;7733;51.554;13.590;2023-07-29T12:24:40;99515.25;;;24.56;79.30
15263;BME280;7733;51.554;13.590;2023-07-29T12:27:11;99513.09;;;24.71;81.99
15263;BME280;7733;51.554;13.590;2023-07-29T12:29:43;99508.34;;;24.84;79.25
15263;BME280;7733;51.554;13.590;2023-07-29T12:32:09;99503.66;;;25.47;78.80
15263;BME280;7733;51.554;13.590;2023-07-29T12:34:37;99493.13;;;24.94;80.37
15263;BME280;7733;51.554;13.590;2023-07-29T12:37:05;99491.38;;;25.44;80.52
15263;BME280;7733;51.554;13.590;2023-07-29T12:39:39;99490.88;;;25.70;79.24
15263;BME280;7733;51.554;13.590;2023-07-29T12:42:06;99486.63;;;25.67;79.59
15263;BME280;7733;51.554;13.590;2023-07-29T12:44:35;99486.06;;;25.73;80.32
15263;BME280;7733;51.554;13.590;2023-07-29T12:47:02;99485.34;;;25.81;83.52
15263;BME280;7733;51.554;13.590;2023-07-29T12:49:30;99485.53;;;25.39;86.97
15263;BME280;7733;51.554;13.590;2023-07-29T12:52:00;99478.00;;;25.73;82.90
15263;BME280;7733;51.554;13.590;2023-07-29T12:54:25;99480.50;;;25.46;83.86
15263;BME280;7733;51.554;13.590;2023-07-29T12:56:51;99484.66;;;25.69;82.51
15263;BME280;7733;51.554;13.590;2023-07-29T12:59:17;99477.38;;;25.60;84.75
15263;BME280;7733;51.554;13.590;2023-07-29T13:01:43;99472.34;;;25.76;80.33
15263;BME280;7733;51.554;13.590;2023-07-29T13:04:10;99482.22;;;25.66;81.00
15263;BME280;7733;51.554;13.590;2023-07-29T13:06:36;99476.31;;;25.72;79.86
15263;BME280;7733;51.554;13.590;2023-07-29T13:09:02;99474.41;;;25.54;82.26
15263;BME280;7733;51.554;13.590;2023-07-29T13:11:28;99470.22;;;25.70;80.27
15263;BME280;7733;51.554;13.590;2023-07-29T13:13:54;99468.44;;;25.40;81.21
15263;BME280;7733;51.554;13.590;2023-07-29T13:16:20;99465.63;;;25.61;83.39
15263;BME280;7733;51.554;13.590;2023-07-29T13:18:46;99467.53;;;25.90;78.30